sensor_id;sensor_type;location;lat;lon;timestamp;P1;durP1;ratioP1;P2;durP2;ratioP2
78581;SDS011;67878;46.242;5.974;2024-02-23T00:00:03;1.00;;;0.80;;
78581;SDS011;67878;46.242;5.974;2024-02-23T00:02:31;1.35;;;0.50;;
78581;SDS011;67878;46.242;5.974;2024-02-23T00:04:57;1.40;;;0.60;;
78581;SDS011;67878;46.242;5.974;2024-02-23T00:07:23;1.25;;;0.90;;
78581;SDS011;67878;46.242;5.974;2024-02-23T00:09:48;1.50;;;0.68;;
78581;SDS011;67878;46.242;5.974;2024-02-23T00:12:14;0.95;;;0.60;;
78581;SDS011;67878;46.242;5.974;2024-02-23T00:14:40;0.88;;;0.65;;
78581;SDS011;67878;46.242;5.974;2024-02-23T00:17:05;1.30;;;0.60;;
78581;SDS011;67878;46.242;5.974;2024-02-23T00:19:31;0.85;;;0.70;;
78581;SDS011;67878;46.242;5.974;2024-02-23T00:21:57;0.80;;;0.52;;
78581;SDS011;67878;46.242;5.974;2024-02-23T00:24:24;0.70;;;0.60;;
78581;SDS011;67878;46.242;5.974;2024-02-23T00:26:50;1.10;;;0.60;;
78581;SDS011;67878;46.242;5.974;2024-02-23T00:29:16;1.42;;;0.70;;
78581;SDS011;67878;46.242;5.974;2024-02-23T00:31:42;1.15;;;0.70;;
78581;SDS011;67878;46.242;5.974;2024-02-23T00:34:10;1.63;;;0.80;;
78581;SDS011;67878;46.242;5.974;2024-02-23T00:36:41;1.38;;;0.60;;
78581;SDS011;67878;46.242;5.974;2024-02-23T00:39:07;1.25;;;0.50;;
78581;SDS011;67878;46.242;5.974;2024-02-23T00:41:36;1.33;;;0.60;;
78581;SDS011;67878;46.242;5.974;2024-02-23T00:44:02;2.97;;;0.80;;
78581;SDS011;67878;46.242;5.974;2024-02-23T00:46:28;1.00;;;0.70;;
78581;SDS011;67878;46.242;5.974;2024-02-23T00:48:53;0.70;;;0.57;;
78581;SDS011;67878;46.242;5.974;2024-02-23T00:51:19;0.95;;;0.50;;
78581;SDS011;67878;46.242;5.974;2024-02-23T00:53:45;0.70;;;0.43;;
78581;SDS011;67878;46.242;5.974;2024-02-23T00:56:10;2.15;;;0.60;;
78581;SDS011;67878;46.242;5.974;2024-02-23T00:58:35;1.25;;;0.60;;
78581;SDS011;67878;46.242;5.974;2024-02-23T01:01:01;1.50;;;0.80;;
78581;SDS011;67878;46.242;5.974;2024-02-23T01:03:26;0.60;;;0.50;;
78581;SDS011;67878;46.242;5.974;2024-02-23T01:05:52;0.98;;;0.57;;
78581;SDS011;67878;46.242;5.974;2024-02-23T01:08:17;0.85;;;0.55;;
78581;SDS011;67878;46.242;5.974;2024-02-23T01:10:43;1.63;;;0.55;;
78581;SDS011;67878;46.242;5.974;2024-02-23T01:13:08;2.80;;;0.82;;
78581;SDS011;67878;46.242;5.974;2024-02-23T01:15:34;2.22;;;0.60;;
78581;SDS011;67878;46.242;5.974;2024-02-23T01:17:59;1.25;;;0.60;;
78581;SDS011;67878;46.242;5.974;2024-02-23T01:20:25;4.13;;;0.60;;
78581;SDS011;67878;46.242;5.974;2024-02-23T01:22:50;3.53;;;0.70;;
78581;SDS011;67878;46.242;5.974;2024-02-23T01:25:15;1.98;;;0.60;;
78581;SDS011;67878;46.242;5.974;2024-02-23T01:27:41;5.07;;;0.75;;
78581;SDS011;67878;46.242;5.974;2024-02-23T01:30:07;2.35;;;0.60;;
78581;SDS011;67878;46.242;5.974;2024-02-23T01:32:33;1.38;;;0.60;;
78581;SDS011;67878;46.242;5.974;2024-02-23T01:34:58;6.15;;;0.70;;
78581;SDS011;67878;46.242;5.974;2024-02-23T01:37:23;3.47;;;0.75;;
78581;SDS011;67878;46.242;5.974;2024-02-23T01:39:49;1.98;;;0.45;;
78581;SDS011;67878;46.242;5.974;2024-02-23T01:42:14;1.67;;;0.50;;
78581;SDS011;67878;46.242;5.974;2024-02-23T01:44:40;1.02;;;0.50;;
78581;SDS011;67878;46.242;5.974;2024-02-23T01:47:05;1.17;;;0.40;;
78581;SDS011;67878;46.242;5.974;2024-02-23T01:49:30;1.45;;;0.60;;
78581;SDS011;67878;46.242;5.974;2024-02-23T01:51:58;1.55;;;0.50;;
78581;SDS011;67878;46.242;5.974;2024-02-23T01:54:25;0.90;;;0.60;;
78581;SDS011;67878;46.242;5.974;2024-02-23T01:56:53;1.83;;;0.70;;
78581;SDS011;67878;46.242;5.974;2024-02-23T01:59:19;1.38;;;0.50;;
78581;SDS011;67878;46.242;5.974;2024-02-23T02:01:45;0.70;;;0.40;;
78581;SDS011;67878;46.242;5.974;2024-02-23T02:04:10;0.63;;;0.43;;
78581;SDS011;67878;46.242;5.974;2024-02-23T02:06:36;1.65;;;0.52;;
78581;SDS011;67878;46.242;5.974;2024-02-23T02:09:02;0.90;;;0.45;;
78581;SDS011;67878;46.242;5.974;2024-02-23T02:11:27;1.20;;;0.43;;
78581;SDS011;67878;46.242;5.974;2024-02-23T02:13:53;1.73;;;0.60;;
78581;SDS011;67878;46.242;5.974;2024-02-23T02:16:18;1.77;;;0.60;;
78581;SDS011;67878;46.242;5.974;2024-02-23T02:18:44;1.95;;;0.43;;
78581;SDS011;67878;46.242;5.974;2024-02-23T02:21:11;0.47;;;0.40;;
78581;SDS011;67878;46.242;5.974;2024-02-23T02:23:36;1.10;;;0.50;;
78581;SDS011;67878;46.242;5.974;2024-02-23T02:26:02;0.52;;;0.35;;
78581;SDS011;67878;46.242;5.974;2024-02-23T02:28:28;1.23;;;0.50;;
78581;SDS011;67878;46.242;5.974;2024-02-23T02:30:53;0.40;;;0.32;;
78581;SDS011;67878;46.242;5.974;2024-02-23T02:33:19;0.50;;;0.40;;
78581;SDS011;67878;46.242;5.974;2024-02-23T02:35:45;0.60;;;0.40;;
78581;SDS011;67878;46.242;5.974;2024-02-23T02:38:11;0.70;;;0.40;;
78581;SDS011;67878;46.242;5.974;2024-02-23T02:40:37;0.73;;;0.55;;
78581;SDS011;67878;46.242;5.974;2024-02-23T02:43:03;1.30;;;0.50;;
78581;SDS011;67878;46.242;5.974;2024-02-23T02:45:29;0.52;;;0.32;;
78581;SDS011;67878;46.242;5.974;2024-02-23T02:47:54;0.52;;;0.45;;
78581;SDS011;67878;46.242;5.974;2024-02-23T02:50:21;1.58;;;0.40;;
78581;SDS011;67878;46.242;5.974;2024-02-23T02:52:47;0.50;;;0.38;;
78581;SDS011;67878;46.242;5.974;2024-02-23T02:55:12;0.77;;;0.50;;
78581;SDS011;67878;46.242;5.974;2024-02-23T02:57:38;0.50;;;0.30;;
78581;SDS011;67878;46.242;5.974;2024-02-23T03:00:03;0.77;;;0.35;;
78581;SDS011;67878;46.242;5.974;2024-02-23T03:02:33;0.82;;;0.32;;
78581;SDS011;67878;46.242;5.974;2024-02-23T03:04:58;1.08;;;0.47;;
78581;SDS011;67878;46.242;5.974;2024-02-23T03:07:24;0.85;;;0.57;;
78581;SDS011;67878;46.242;5.974;2024-02-23T03:09:49;0.80;;;0.40;;
78581;SDS011;67878;46.242;5.974;2024-02-23T03:12:15;1.23;;;0.50;;
78581;SDS011;67878;46.242;5.974;2024-02-23T03:14:41;0.68;;;0.50;;
78581;SDS011;67878;46.242;5.974;2024-02-23T03:17:07;0.95;;;0.38;;
78581;SDS011;67878;46.242;5.974;2024-02-23T03:19:32;1.17;;;0.60;;
78581;SDS011;67878;46.242;5.974;2024-02-23T03:21:58;0.70;;;0.45;;
78581;SDS011;67878;46.242;5.974;2024-02-23T03:24:24;0.57;;;0.30;;
78581;SDS011;67878;46.242;5.974;2024-02-23T03:26:49;1.60;;;0.50;;
78581;SDS011;67878;46.242;5.974;2024-02-23T03:29:15;0.70;;;0.40;;
78581;SDS011;67878;46.242;5.974;2024-02-23T03:31:40;0.98;;;0.40;;
78581;SDS011;67878;46.242;5.974;2024-02-23T03:34:06;1.30;;;0.50;;
78581;SDS011;67878;46.242;5.974;2024-02-23T03:36:32;2.72;;;0.63;;
78581;SDS011;67878;46.242;5.974;2024-02-23T03:38:58;1.33;;;0.50;;
78581;SDS011;67878;46.242;5.974;2024-02-23T03:41:24;1.98;;;0.30;;
78581;SDS011;67878;46.242;5.974;2024-02-23T03:43:49;0.32;;;0.22;;
78581;SDS011;67878;46.242;5.974;2024-02-23T03:46:14;1.15;;;0.43;;
78581;SDS011;67878;46.242;5.974;2024-02-23T03:48:41;1.30;;;0.55;;
78581;SDS011;67878;46.242;5.974;2024-02-23T03:51:08;0.40;;;0.30;;
78581;SDS011;67878;46.242;5.974;2024-02-23T03:53:33;0.60;;;0.40;;
78581;SDS011;67878;46.242;5.974;2024-02-23T03:55:59;0.43;;;0.30;;
78581;SDS011;67878;46.242;5.974;2024-02-23T03:58:24;1.02;;;0.50;;
78581;SDS011;67878;46.242;5.974;2024-02-23T04:00:50;1.40;;;0.43;;
78581;SDS011;67878;46.242;5.974;2024-02-23T04:03:16;0.88;;;0.40;;
78581;SDS011;67878;46.242;5.974;2024-02-23T04:05:42;0.75;;;0.45;;
78581;SDS011;67878;46.242;5.974;2024-02-23T04:08:07;0.65;;;0.40;;
78581;SDS011;67878;46.242;5.974;2024-02-23T04:10:33;1.08;;;0.40;;
78581;SDS011;67878;46.242;5.974;2024-02-23T04:12:58;1.55;;;0.52;;
78581;SDS011;67878;46.242;5.974;2024-02-23T04:15:25;1.73;;;0.40;;
78581;SDS011;67878;46.242;5.974;2024-02-23T04:17:50;0.85;;;0.40;;
78581;SDS011;67878;46.242;5.974;2024-02-23T04:20:16;1.90;;;0.40;;
78581;SDS011;67878;46.242;5.974;2024-02-23T04:22:41;1.23;;;0.35;;
78581;SDS011;67878;46.242;5.974;2024-02-23T04:25:07;1.35;;;0.52;;
78581;SDS011;67878;46.242;5.974;2024-02-23T04:27:33;3.22;;;0.60;;
78581;SDS011;67878;46.242;5.974;2024-02-23T04:29:58;1.83;;;0.45;;
78581;SDS011;67878;46.242;5.974;2024-02-23T04:32:23;3.95;;;0.63;;
78581;SDS011;67878;46.242;5.974;2024-02-23T04:34:49;1.10;;;0.52;;
78581;SDS011;67878;46.242;5.974;2024-02-23T04:37:14;2.58;;;0.55;;
78581;SDS011;67878;46.242;5.974;2024-02-23T04:39:40;0.90;;;0.40;;
78581;SDS011;67878;46.242;5.974;2024-02-23T04:42:07;1.35;;;0.40;;
78581;SDS011;67878;46.242;5.974;2024-02-23T04:44:33;1.58;;;0.50;;
78581;SDS011;67878;46.242;5.974;2024-02-23T04:46:59;1.70;;;0.43;;
78581;SDS011;67878;46.242;5.974;2024-02-23T04:49:25;0.43;;;0.32;;
78581;SDS011;67878;46.242;5.974;2024-02-23T04:51:50;0.70;;;0.50;;
78581;SDS011;67878;46.242;5.974;2024-02-23T04:54:16;1.00;;;0.60;;
78581;SDS011;67878;46.242;5.974;2024-02-23T04:56:41;1.30;;;0.35;;
78581;SDS011;67878;46.242;5.974;2024-02-23T04:59:06;1.92;;;0.38;;
78581;SDS011;67878;46.242;5.974;2024-02-23T05:01:36;1.38;;;0.30;;
78581;SDS011;67878;46.242;5.974;2024-02-23T05:04:02;1.08;;;0.30;;
78581;SDS011;67878;46.242;5.974;2024-02-23T05:06:31;0.75;;;0.22;;
78581;SDS011;67878;46.242;5.974;2024-02-23T05:08:57;0.80;;;0.40;;
78581;SDS011;67878;46.242;5.974;2024-02-23T05:11:22;3.00;;;0.50;;
78581;SDS011;67878;46.242;5.974;2024-02-23T05:13:47;3.92;;;0.60;;
78581;SDS011;67878;46.242;5.974;2024-02-23T05:16:16;2.70;;;0.50;;
78581;SDS011;67878;46.242;5.974;2024-02-23T05:18:41;8.02;;;0.90;;
78581;SDS011;67878;46.242;5.974;2024-02-23T05:21:08;1.13;;;0.40;;
78581;SDS011;67878;46.242;5.974;2024-02-23T05:23:34;1.88;;;0.32;;
78581;SDS011;67878;46.242;5.974;2024-02-23T05:26:00;4.13;;;0.65;;
78581;SDS011;67878;46.242;5.974;2024-02-23T05:28:25;0.93;;;0.50;;
78581;SDS011;67878;46.242;5.974;2024-02-23T05:30:51;4.85;;;0.40;;
78581;SDS011;67878;46.242;5.974;2024-02-23T05:33:16;2.30;;;0.60;;
78581;SDS011;67878;46.242;5.974;2024-02-23T05:35:46;1.38;;;0.50;;
78581;SDS011;67878;46.242;5.974;2024-02-23T05:38:17;1.33;;;0.30;;
78581;SDS011;67878;46.242;5.974;2024-02-23T05:40:42;1.90;;;0.47;;
78581;SDS011;67878;46.242;5.974;2024-02-23T05:43:08;2.10;;;0.55;;
78581;SDS011;67878;46.242;5.974;2024-02-23T05:45:34;3.80;;;0.50;;
78581;SDS011;67878;46.242;5.974;2024-02-23T05:47:59;3.50;;;0.80;;
78581;SDS011;67878;46.242;5.974;2024-02-23T05:50:24;3.42;;;0.50;;
78581;SDS011;67878;46.242;5.974;2024-02-23T05:52:50;2.45;;;0.52;;
78581;SDS011;67878;46.242;5.974;2024-02-23T05:55:17;3.58;;;0.68;;
78581;SDS011;67878;46.242;5.974;2024-02-23T05:57:43;3.00;;;0.40;;
78581;SDS011;67878;46.242;5.974;2024-02-23T06:00:08;3.30;;;0.40;;
78581;SDS011;67878;46.242;5.974;2024-02-23T06:02:34;4.28;;;0.50;;
78581;SDS011;67878;46.242;5.974;2024-02-23T06:04:59;8.85;;;0.60;;
78581;SDS011;67878;46.242;5.974;2024-02-23T06:07:25;3.30;;;0.68;;
78581;SDS011;67878;46.242;5.974;2024-02-23T06:09:54;2.20;;;0.50;;
78581;SDS011;67878;46.242;5.974;2024-02-23T06:12:23;2.65;;;0.50;;
78581;SDS011;67878;46.242;5.974;2024-02-23T06:14:48;5.90;;;0.63;;
78581;SDS011;67878;46.242;5.974;2024-02-23T06:17:14;3.10;;;0.52;;
78581;SDS011;67878;46.242;5.974;2024-02-23T06:19:41;2.05;;;0.70;;
78581;SDS011;67878;46.242;5.974;2024-02-23T06:22:08;1.05;;;0.40;;
78581;SDS011;67878;46.242;5.974;2024-02-23T06:24:35;3.20;;;0.45;;
78581;SDS011;67878;46.242;5.974;2024-02-23T06:27:00;1.88;;;0.52;;
78581;SDS011;67878;46.242;5.974;2024-02-23T06:29:28;2.00;;;0.52;;
78581;SDS011;67878;46.242;5.974;2024-02-23T06:31:54;0.88;;;0.45;;
78581;SDS011;67878;46.242;5.974;2024-02-23T06:34:19;2.40;;;0.73;;
78581;SDS011;67878;46.242;5.974;2024-02-23T06:36:45;1.08;;;0.40;;
78581;SDS011;67878;46.242;5.974;2024-02-23T06:39:10;2.70;;;0.57;;
78581;SDS011;67878;46.242;5.974;2024-02-23T06:41:36;3.28;;;0.52;;
78581;SDS011;67878;46.242;5.974;2024-02-23T06:44:03;2.17;;;0.50;;
78581;SDS011;67878;46.242;5.974;2024-02-23T06:46:29;1.65;;;0.52;;
78581;SDS011;67878;46.242;5.974;2024-02-23T06:48:55;2.13;;;0.50;;
78581;SDS011;67878;46.242;5.974;2024-02-23T06:51:20;2.97;;;0.50;;
78581;SDS011;67878;46.242;5.974;2024-02-23T06:53:47;2.08;;;0.52;;
78581;SDS011;67878;46.242;5.974;2024-02-23T06:56:13;0.65;;;0.30;;
78581;SDS011;67878;46.242;5.974;2024-02-23T06:58:38;1.38;;;0.43;;
78581;SDS011;67878;46.242;5.974;2024-02-23T07:01:04;0.90;;;0.40;;
78581;SDS011;67878;46.242;5.974;2024-02-23T07:03:31;2.20;;;0.50;;
78581;SDS011;67878;46.242;5.974;2024-02-23T07:05:57;1.60;;;0.30;;
78581;SDS011;67878;46.242;5.974;2024-02-23T07:08:24;1.40;;;0.60;;
78581;SDS011;67878;46.242;5.974;2024-02-23T07:10:51;2.92;;;0.63;;
78581;SDS011;67878;46.242;5.974;2024-02-23T07:13:20;2.40;;;0.43;;
78581;SDS011;67878;46.242;5.974;2024-02-23T07:15:45;1.70;;;0.55;;
78581;SDS011;67878;46.242;5.974;2024-02-23T07:18:10;3.03;;;0.95;;
78581;SDS011;67878;46.242;5.974;2024-02-23T07:20:36;1.65;;;0.70;;
78581;SDS011;67878;46.242;5.974;2024-02-23T07:23:04;7.38;;;1.25;;
78581;SDS011;67878;46.242;5.974;2024-02-23T07:25:30;4.75;;;1.30;;
78581;SDS011;67878;46.242;5.974;2024-02-23T07:27:57;6.90;;;1.20;;
78581;SDS011;67878;46.242;5.974;2024-02-23T07:30:25;4.55;;;1.15;;
78581;SDS011;67878;46.242;5.974;2024-02-23T07:32:51;4.10;;;0.82;;
78581;SDS011;67878;46.242;5.974;2024-02-23T07:35:16;1.77;;;0.80;;
78581;SDS011;67878;46.242;5.974;2024-02-23T07:37:41;2.75;;;0.88;;
78581;SDS011;67878;46.242;5.974;2024-02-23T07:40:07;1.27;;;0.73;;
78581;SDS011;67878;46.242;5.974;2024-02-23T07:42:32;7.35;;;1.13;;
78581;SDS011;67878;46.242;5.974;2024-02-23T07:45:04;5.20;;;1.20;;
78581;SDS011;67878;46.242;5.974;2024-02-23T07:47:31;4.25;;;1.05;;
78581;SDS011;67878;46.242;5.974;2024-02-23T07:49:57;7.72;;;1.05;;
78581;SDS011;67878;46.242;5.974;2024-02-23T07:52:23;4.97;;;1.25;;
78581;SDS011;67878;46.242;5.974;2024-02-23T07:54:49;3.78;;;1.10;;
78581;SDS011;67878;46.242;5.974;2024-02-23T07:57:17;2.78;;;0.95;;
78581;SDS011;67878;46.242;5.974;2024-02-23T07:59:46;5.18;;;0.90;;
78581;SDS011;67878;46.242;5.974;2024-02-23T08:02:12;2.80;;;0.80;;
78581;SDS011;67878;46.242;5.974;2024-02-23T08:04:37;3.85;;;0.85;;
78581;SDS011;67878;46.242;5.974;2024-02-23T08:07:03;4.20;;;1.00;;
78581;SDS011;67878;46.242;5.974;2024-02-23T08:09:29;3.00;;;0.80;;
78581;SDS011;67878;46.242;5.974;2024-02-23T08:11:55;6.00;;;1.17;;
78581;SDS011;67878;46.242;5.974;2024-02-23T08:14:20;3.47;;;0.90;;
78581;SDS011;67878;46.242;5.974;2024-02-23T08:16:45;4.47;;;0.98;;
78581;SDS011;67878;46.242;5.974;2024-02-23T08:19:11;2.83;;;1.08;;
78581;SDS011;67878;46.242;5.974;2024-02-23T08:21:36;3.38;;;0.82;;
78581;SDS011;67878;46.242;5.974;2024-02-23T08:24:02;6.15;;;0.90;;
78581;SDS011;67878;46.242;5.974;2024-02-23T08:26:28;6.90;;;1.10;;
78581;SDS011;67878;46.242;5.974;2024-02-23T08:28:53;5.47;;;1.20;;
78581;SDS011;67878;46.242;5.974;2024-02-23T08:31:18;3.80;;;0.95;;
78581;SDS011;67878;46.242;5.974;2024-02-23T08:33:44;3.20;;;1.08;;
78581;SDS011;67878;46.242;5.974;2024-02-23T08:36:10;14.93;;;1.40;;
78581;SDS011;67878;46.242;5.974;2024-02-23T08:38:35;20.63;;;2.13;;
78581;SDS011;67878;46.242;5.974;2024-02-23T08:41:02;12.52;;;1.30;;
78581;SDS011;67878;46.242;5.974;2024-02-23T08:43:27;10.82;;;1.00;;
78581;SDS011;67878;46.242;5.974;2024-02-23T08:45:53;4.38;;;1.08;;
78581;SDS011;67878;46.242;5.974;2024-02-23T08:48:18;4.22;;;0.98;;
78581;SDS011;67878;46.242;5.974;2024-02-23T08:50:44;8.73;;;1.30;;
78581;SDS011;67878;46.242;5.974;2024-02-23T08:53:09;2.95;;;1.00;;
78581;SDS011;67878;46.242;5.974;2024-02-23T08:55:36;3.42;;;0.90;;
78581;SDS011;67878;46.242;5.974;2024-02-23T08:58:05;2.90;;;0.90;;
78581;SDS011;67878;46.242;5.974;2024-02-23T09:00:34;4.97;;;0.90;;
78581;SDS011;67878;46.242;5.974;2024-02-23T09:02:59;3.55;;;0.90;;
78581;SDS011;67878;46.242;5.974;2024-02-23T09:05:24;4.32;;;0.98;;
78581;SDS011;67878;46.242;5.974;2024-02-23T09:07:50;3.67;;;1.00;;
78581;SDS011;67878;46.242;5.974;2024-02-23T09:10:15;4.20;;;0.80;;
78581;SDS011;67878;46.242;5.974;2024-02-23T09:12:41;3.10;;;1.00;;
78581;SDS011;67878;46.242;5.974;2024-02-23T09:15:06;2.42;;;0.82;;
78581;SDS011;67878;46.242;5.974;2024-02-23T09:17:32;1.83;;;0.75;;
78581;SDS011;67878;46.242;5.974;2024-02-23T09:19:58;2.95;;;0.80;;
78581;SDS011;67878;46.242;5.974;2024-02-23T09:22:23;3.05;;;1.23;;
78581;SDS011;67878;46.242;5.974;2024-02-23T09:24:49;2.75;;;1.00;;
78581;SDS011;67878;46.242;5.974;2024-02-23T09:27:14;3.45;;;0.90;;
78581;SDS011;67878;46.242;5.974;2024-02-23T09:29:40;2.42;;;0.70;;
78581;SDS011;67878;46.242;5.974;2024-02-23T09:32:07;1.92;;;0.70;;
78581;SDS011;67878;46.242;5.974;2024-02-23T09:34:32;1.88;;;0.70;;
78581;SDS011;67878;46.242;5.974;2024-02-23T09:36:58;2.22;;;0.77;;
78581;SDS011;67878;46.242;5.974;2024-02-23T09:39:23;2.78;;;0.60;;
78581;SDS011;67878;46.242;5.974;2024-02-23T09:41:51;1.70;;;0.70;;
78581;SDS011;67878;46.242;5.974;2024-02-23T09:44:19;2.63;;;0.70;;
78581;SDS011;67878;46.242;5.974;2024-02-23T09:46:47;2.25;;;0.60;;
78581;SDS011;67878;46.242;5.974;2024-02-23T09:49:13;2.03;;;0.73;;
78581;SDS011;67878;46.242;5.974;2024-02-23T09:51:40;3.38;;;0.90;;
78581;SDS011;67878;46.242;5.974;2024-02-23T09:54:06;3.67;;;0.80;;
78581;SDS011;67878;46.242;5.974;2024-02-23T09:56:32;3.17;;;0.93;;
78581;SDS011;67878;46.242;5.974;2024-02-23T09:58:59;2.90;;;0.93;;
78581;SDS011;67878;46.242;5.974;2024-02-23T10:01:30;3.42;;;1.00;;
78581;SDS011;67878;46.242;5.974;2024-02-23T10:03:57;2.00;;;0.77;;
78581;SDS011;67878;46.242;5.974;2024-02-23T10:06:25;1.88;;;0.73;;
78581;SDS011;67878;46.242;5.974;2024-02-23T10:08:53;2.78;;;0.82;;
78581;SDS011;67878;46.242;5.974;2024-02-23T10:11:22;4.60;;;0.70;;
78581;SDS011;67878;46.242;5.974;2024-02-23T10:13:49;1.42;;;0.65;;
78581;SDS011;67878;46.242;5.974;2024-02-23T10:16:16;1.70;;;0.70;;
78581;SDS011;67878;46.242;5.974;2024-02-23T10:18:42;2.13;;;0.90;;
78581;SDS011;67878;46.242;5.974;2024-02-23T10:21:08;1.38;;;0.52;;
78581;SDS011;67878;46.242;5.974;2024-02-23T10:23:33;0.98;;;0.50;;
78581;SDS011;67878;46.242;5.974;2024-02-23T10:25:59;1.52;;;0.68;;
78581;SDS011;67878;46.242;5.974;2024-02-23T10:28:24;1.60;;;0.80;;
78581;SDS011;67878;46.242;5.974;2024-02-23T10:30:50;1.83;;;0.95;;
78581;SDS011;67878;46.242;5.974;2024-02-23T10:33:16;2.17;;;0.60;;
78581;SDS011;67878;46.242;5.974;2024-02-23T10:35:47;2.78;;;0.93;;
78581;SDS011;67878;46.242;5.974;2024-02-23T10:38:15;2.10;;;0.60;;
78581;SDS011;67878;46.242;5.974;2024-02-23T10:40:43;1.08;;;0.57;;
78581;SDS011;67878;46.242;5.974;2024-02-23T10:43:12;2.42;;;0.65;;
78581;SDS011;67878;46.242;5.974;2024-02-23T10:45:44;2.45;;;0.73;;
78581;SDS011;67878;46.242;5.974;2024-02-23T10:48:11;1.10;;;0.63;;
78581;SDS011;67878;46.242;5.974;2024-02-23T10:50:37;1.65;;;0.82;;
78581;SDS011;67878;46.242;5.974;2024-02-23T10:53:07;1.85;;;0.80;;
78581;SDS011;67878;46.242;5.974;2024-02-23T10:55:36;1.20;;;0.90;;
78581;SDS011;67878;46.242;5.974;2024-02-23T10:58:06;2.58;;;0.85;;
78581;SDS011;67878;46.242;5.974;2024-02-23T11:00:36;1.88;;;0.70;;
78581;SDS011;67878;46.242;5.974;2024-02-23T11:03:02;1.30;;;0.60;;
78581;SDS011;67878;46.242;5.974;2024-02-23T11:05:29;1.27;;;0.60;;
78581;SDS011;67878;46.242;5.974;2024-02-23T11:07:56;2.88;;;0.70;;
78581;SDS011;67878;46.242;5.974;2024-02-23T11:10:22;1.02;;;0.60;;
78581;SDS011;67878;46.242;5.974;2024-02-23T11:12:59;2.45;;;0.50;;
78581;SDS011;67878;46.242;5.974;2024-02-23T11:15:26;3.47;;;0.70;;
78581;SDS011;67878;46.242;5.974;2024-02-23T11:17:53;5.50;;;0.88;;
78581;SDS011;67878;46.242;5.974;2024-02-23T11:20:18;2.80;;;0.70;;
78581;SDS011;67878;46.242;5.974;2024-02-23T11:22:48;1.30;;;0.70;;
78581;SDS011;67878;46.242;5.974;2024-02-23T11:25:18;2.50;;;0.70;;
78581;SDS011;67878;46.242;5.974;2024-02-23T11:27:43;1.80;;;0.70;;
78581;SDS011;67878;46.242;5.974;2024-02-23T11:30:09;3.28;;;0.90;;
78581;SDS011;67878;46.242;5.974;2024-02-23T11:32:43;1.55;;;0.60;;
78581;SDS011;67878;46.242;5.974;2024-02-23T11:35:11;1.40;;;0.65;;
78581;SDS011;67878;46.242;5.974;2024-02-23T11:37:44;1.35;;;0.77;;
78581;SDS011;67878;46.242;5.974;2024-02-23T11:40:24;1.17;;;0.50;;
78581;SDS011;67878;46.242;5.974;2024-02-23T11:42:50;1.90;;;0.60;;
78581;SDS011;67878;46.242;5.974;2024-02-23T11:45:16;1.58;;;0.57;;
78581;SDS011;67878;46.242;5.974;2024-02-23T11:47:42;1.67;;;0.68;;
78581;SDS011;67878;46.242;5.974;2024-02-23T11:50:10;1.33;;;0.50;;
78581;SDS011;67878;46.242;5.974;2024-02-23T11:52:38;3.08;;;0.60;;
78581;SDS011;67878;46.242;5.974;2024-02-23T11:57:36;1.65;;;0.70;;
78581;SDS011;67878;46.242;5.974;2024-02-23T12:00:03;4.40;;;0.80;;
78581;SDS011;67878;46.242;5.974;2024-02-23T12:02:32;1.13;;;0.60;;
78581;SDS011;67878;46.242;5.974;2024-02-23T12:04:59;1.88;;;0.52;;
78581;SDS011;67878;46.242;5.974;2024-02-23T12:07:25;1.33;;;0.70;;
78581;SDS011;67878;46.242;5.974;2024-02-23T12:09:53;2.72;;;0.73;;
78581;SDS011;67878;46.242;5.974;2024-02-23T12:12:18;2.40;;;0.55;;
78581;SDS011;67878;46.242;5.974;2024-02-23T12:14:44;3.00;;;0.60;;
78581;SDS011;67878;46.242;5.974;2024-02-23T12:17:09;2.05;;;0.70;;
78581;SDS011;67878;46.242;5.974;2024-02-23T12:19:38;2.25;;;0.55;;
78581;SDS011;67878;46.242;5.974;2024-02-23T12:22:05;1.92;;;0.63;;
78581;SDS011;67878;46.242;5.974;2024-02-23T12:24:30;5.85;;;0.90;;
78581;SDS011;67878;46.242;5.974;2024-02-23T12:26:56;2.22;;;0.95;;
78581;SDS011;67878;46.242;5.974;2024-02-23T12:29:21;2.88;;;1.08;;
78581;SDS011;67878;46.242;5.974;2024-02-23T12:31:47;6.28;;;1.40;;
78581;SDS011;67878;46.242;5.974;2024-02-23T12:34:13;6.32;;;1.55;;
78581;SDS011;67878;46.242;5.974;2024-02-23T12:36:38;6.88;;;1.38;;
78581;SDS011;67878;46.242;5.974;2024-02-23T12:39:04;2.35;;;1.00;;
78581;SDS011;67878;46.242;5.974;2024-02-23T12:41:30;25.17;;;2.97;;
78581;SDS011;67878;46.242;5.974;2024-02-23T12:43:56;21.48;;;2.38;;
78581;SDS011;67878;46.242;5.974;2024-02-23T12:46:22;33.22;;;3.30;;
78581;SDS011;67878;46.242;5.974;2024-02-23T12:48:49;10.70;;;1.80;;
78581;SDS011;67878;46.242;5.974;2024-02-23T12:51:14;7.45;;;1.20;;
78581;SDS011;67878;46.242;5.974;2024-02-23T12:53:40;6.72;;;1.20;;
78581;SDS011;67878;46.242;5.974;2024-02-23T12:56:08;6.65;;;1.20;;
78581;SDS011;67878;46.242;5.974;2024-02-23T12:58:38;8.20;;;1.30;;
78581;SDS011;67878;46.242;5.974;2024-02-23T13:01:04;5.18;;;1.15;;
78581;SDS011;67878;46.242;5.974;2024-02-23T13:03:34;6.20;;;1.10;;
78581;SDS011;67878;46.242;5.974;2024-02-23T13:06:01;2.45;;;0.85;;
78581;SDS011;67878;46.242;5.974;2024-02-23T13:08:27;3.67;;;1.15;;
78581;SDS011;67878;46.242;5.974;2024-02-23T13:10:53;3.50;;;1.10;;
78581;SDS011;67878;46.242;5.974;2024-02-23T13:13:20;4.20;;;0.98;;
78581;SDS011;67878;46.242;5.974;2024-02-23T13:15:47;2.75;;;0.88;;
78581;SDS011;67878;46.242;5.974;2024-02-23T13:18:14;7.32;;;1.10;;
78581;SDS011;67878;46.242;5.974;2024-02-23T13:20:40;3.88;;;1.00;;
78581;SDS011;67878;46.242;5.974;2024-02-23T13:23:09;5.30;;;0.70;;
78581;SDS011;67878;46.242;5.974;2024-02-23T13:25:36;6.18;;;1.10;;
78581;SDS011;67878;46.242;5.974;2024-02-23T13:28:03;4.97;;;0.90;;
78581;SDS011;67878;46.242;5.974;2024-02-23T13:30:29;5.63;;;1.10;;
78581;SDS011;67878;46.242;5.974;2024-02-23T13:32:55;4.05;;;1.00;;
78581;SDS011;67878;46.242;5.974;2024-02-23T13:35:21;2.72;;;1.10;;
78581;SDS011;67878;46.242;5.974;2024-02-23T13:37:47;4.13;;;1.02;;
78581;SDS011;67878;46.242;5.974;2024-02-23T13:40:13;4.88;;;1.08;;
78581;SDS011;67878;46.242;5.974;2024-02-23T13:42:38;5.63;;;1.10;;
78581;SDS011;67878;46.242;5.974;2024-02-23T13:45:05;5.63;;;1.33;;
78581;SDS011;67878;46.242;5.974;2024-02-23T13:47:31;8.65;;;1.17;;
78581;SDS011;67878;46.242;5.974;2024-02-23T13:49:57;3.78;;;0.80;;
78581;SDS011;67878;46.242;5.974;2024-02-23T13:52:23;5.63;;;1.15;;
78581;SDS011;67878;46.242;5.974;2024-02-23T13:54:49;4.43;;;0.70;;
78581;SDS011;67878;46.242;5.974;2024-02-23T13:57:15;5.13;;;0.95;;
78581;SDS011;67878;46.242;5.974;2024-02-23T13:59:40;4.65;;;0.98;;
78581;SDS011;67878;46.242;5.974;2024-02-23T14:02:06;5.40;;;0.90;;
78581;SDS011;67878;46.242;5.974;2024-02-23T14:04:32;2.65;;;0.80;;
78581;SDS011;67878;46.242;5.974;2024-02-23T14:06:57;1.88;;;0.73;;
78581;SDS011;67878;46.242;5.974;2024-02-23T14:09:23;3.30;;;0.70;;
78581;SDS011;67878;46.242;5.974;2024-02-23T14:11:48;4.65;;;1.15;;
78581;SDS011;67878;46.242;5.974;2024-02-23T14:14:14;3.00;;;0.90;;
78581;SDS011;67878;46.242;5.974;2024-02-23T14:16:40;4.55;;;1.10;;
78581;SDS011;67878;46.242;5.974;2024-02-23T14:19:05;3.08;;;0.68;;
78581;SDS011;67878;46.242;5.974;2024-02-23T14:21:31;3.28;;;0.73;;
78581;SDS011;67878;46.242;5.974;2024-02-23T14:23:57;6.47;;;1.20;;
78581;SDS011;67878;46.242;5.974;2024-02-23T14:28:50;2.95;;;0.60;;
78581;SDS011;67878;46.242;5.974;2024-02-23T14:31:15;2.13;;;0.75;;
78581;SDS011;67878;46.242;5.974;2024-02-23T14:33:40;1.90;;;0.45;;
78581;SDS011;67878;46.242;5.974;2024-02-23T14:36:06;1.58;;;0.65;;
78581;SDS011;67878;46.242;5.974;2024-02-23T14:38:31;1.90;;;1.00;;
78581;SDS011;67878;46.242;5.974;2024-02-23T14:40:57;3.92;;;0.90;;
78581;SDS011;67878;46.242;5.974;2024-02-23T14:43:24;5.45;;;0.60;;
78581;SDS011;67878;46.242;5.974;2024-02-23T14:45:49;2.15;;;0.73;;